EST,Max TemperatureF,Mean TemperatureF,Min TemperatureF,Max Dew PointF,MeanDew PointF,Min DewpointF,Max Humidity, Mean Humidity, Min Humidity, Max Sea Level PressureIn, Mean Sea Level PressureIn, Min Sea Level PressureIn, Max VisibilityMiles, Mean VisibilityMiles, Min VisibilityMiles, Max Wind SpeedMPH, Mean Wind SpeedMPH, Max Gust SpeedMPH,PrecipitationIn, CloudCover, Events, WindDirDegrees
2013-11-1,64,57,50,60,46,40,87,68,44,29.73,29.62,29.34,10,10,2,25,14,53,0.00,6,Rain,238
2013-11-2,54,50,46,41,38,32,79,63,45,30.05,29.84,29.73,10,10,10,16,9,22,0.00,8,Rain,283
2013-11-3,54,46,39,39,35,30,84,67,40,30.39,30.25,30.05,10,10,10,9,4,,0.00,5,,22
2013-11-4,57,46,36,37,32,26,76,57,36,30.45,30.39,30.33,10,10,10,10,7,,0.00,0,,112
2013-11-5,63,56,50,38,35,34,64,49,34,30.44,30.36,30.25,10,10,10,10,4,,0.00,3,Rain,161
2013-11-6,70,58,47,56,43,32,87,60,35,30.25,30.07,29.95,10,10,5,23,9,33,0.00,6,Rain,196
2013-11-7,51,44,36,47,32,23,84,64,36,30.21,30.14,29.98,10,10,10,17,11,25,0.00,6,Rain,291
2013-11-8,47,40,33,33,30,26,86,70,45,30.35,30.27,30.17,10,9,4,17,6,22,0.00,2,Rain,258
2013-11-9,61,48,35,32,28,24,80,50,24,30.26,30.10,30.00,10,10,10,24,9,36,0.00,1,,201
2013-11-10,49,40,31,36,29,23,81,58,38,30.33,30.22,30.05,10,10,10,21,10,31,0.00,3,,265
2013-11-11,51,40,29,41,32,25,85,72,45,30.31,30.19,30.05,10,10,4,21,6,28,0.00,7,Rain-Snow,215
2013-11-12,35,31,27,31,22,18,88,70,59,30.57,30.45,30.21,10,9,2,17,12,26,0.00,4,Snow,325
2013-11-13,39,30,22,21,18,14,83,61,36,30.60,30.52,30.38,10,10,10,14,6,20,0.00,0,,237
2013-11-14,53,40,28,21,17,10,70,45,17,30.38,30.26,30.16,10,10,10,18,10,25,0.00,0,,193
2013-11-15,54,44,35,39,23,15,71,41,25,30.19,30.15,30.10,10,10,10,20,8,24,0.00,2,,190
2013-11-16,61,54,46,50,45,39,82,72,65,30.17,30.08,29.94,10,10,10,16,7,20,0.00,7,,157
2013-11-17,61,56,52,56,52,37,87,77,43,29.94,29.76,29.51,10,10,2,37,17,51,0.00,7,Rain-Thunderstorm,186
2013-11-18,52,45,37,38,32,25,77,60,37,30.16,29.95,29.76,10,10,10,28,14,38,0.00,2,,268
2013-11-19,43,36,30,27,24,21,78,59,42,30.37,30.29,30.16,10,10,10,14,7,17,0.00,4,,13
2013-11-20,51,40,28,28,25,21,78,61,35,30.37,30.32,30.26,10,10,10,10,6,,0.00,0,,92
2013-11-21,57,48,40,43,34,25,78,57,42,30.35,30.28,30.21,10,10,7,12,5,,0.00,7,Rain,150
2013-11-22,53,46,37,50,43,26,89,81,60,30.34,30.22,30.14,10,7,1,22,7,30,0.00,8,Rain,270
2013-11-23,38,30,23,27,21,6,83,62,42,30.49,30.36,30.28,10,10,5,21,10,28,0.00,4,Snow,312
2013-11-24,28,22,17,13,7,-2,76,52,30,30.64,30.56,30.50,10,10,10,15,9,20,0.00,1,,305
2013-11-25,38,28,18,27,13,5,78,55,27,30.51,30.33,30.19,10,10,5,16,5,22,0.00,4,Snow,192
2013-11-26,34,33,32,32,30,27,91,88,76,30.20,30.03,29.88,10,4,1,10,4,,0.00,8,Snow,316
2013-11-27,33,28,23,28,19,10,83,67,43,30.23,30.00,29.85,10,9,1,22,11,28,0.00,7,Snow,304
2013-11-28,32,26,19,22,18,14,79,68,53,30.42,30.34,30.23,10,10,10,15,8,16,0.00,7,Snow,213
2013-11-29,37,28,20,22,18,16,84,66,43,30.62,30.56,30.43,10,10,7,7,3,,0.00,1,,140
2013-11-30,44,34,24,28,24,18,81,68,50,30.53,30.35,30.18,10,10,10,10,5,,0.00,1,,140